Terminal Aerodrome Forecast
Issued by NWS Louisville, KY

Home | Current Version | Previous Version | Text Only | Print | Product List | Glossary On
Versions: 1 2 3 4 5 6 7 8 9 10 11 12 13 14
000
FTUS43 KLMK 251720
TAFSDF
TAF
KSDF 251720Z 2518/2624 21008KT P6SM SCT050 SCT250
     FM260000 19005KT P6SM SCT050 BKN150
     FM261500 20005KT P6SM BKN050 PROB30 2616/2622 4SM TSRA BR
      BKN040CB=

USA.gov is the U.S. government's official web portal to all federal, state and local government web resources and services.